Time;durP1;ratioP1;P1;durP2;ratioP2;P2;SDS_P1;SDS_P2;PMS_P1;PMS_P2;Temp;Humidity;BMP_temperature;BMP_pressure;BME280_temperature;BME280_humidity;BME280_pressure;Samples;Min_cycle;Max_cycle;Signal;HPM_P1;HPM_P2
2021/11/24 03:47:37;;;;;;;38.53;21.30;;;2.00;99.90;;;;;;509865;27;20311;-78
2021/11/24 03:50:05;;;;;;;34.38;20.70;;;2.00;99.90;;;;;;4868959;29;20210;-78
2021/11/24 03:52:31;;;;;;;33.65;19.55;;;2.00;99.90;;;;;;4868389;29;20085;-78
2021/11/24 03:54:57;;;;;;;36.55;20.15;;;2.10;99.90;;;;;;4857957;29;20034;-78
2021/11/24 03:57:23;;;;;;;39.63;21.75;;;2.10;99.90;;;;;;4851044;29;20048;-78
2021/11/24 03:59:48;;;;;;;37.45;19.98;;;2.10;99.90;;;;;;4860324;29;20033;-78
2021/11/24 04:02:14;;;;;;;34.17;20.63;;;2.10;99.90;;;;;;4869147;29;20337;-78
2021/11/24 04:04:40;;;;;;;33.45;19.05;;;2.10;99.90;;;;;;4872155;29;20029;-78
2021/11/24 04:07:06;;;;;;;35.90;19.83;;;2.10;99.90;;;;;;4880483;29;20042;-78
2021/11/24 04:09:32;;;;;;;29.35;18.52;;;2.10;99.90;;;;;;4841936;29;20033;-78
2021/11/24 04:11:57;;;;;;;31.75;17.77;;;2.10;99.90;;;;;;4854863;29;20040;-78
2021/11/24 04:14:23;;;;;;;31.08;19.13;;;2.10;99.90;;;;;;4840448;29;20034;-78
2021/11/24 04:16:49;;;;;;;30.48;17.75;;;2.00;99.90;;;;;;4827906;29;20349;-78
2021/11/24 04:19:15;;;;;;;33.13;20.25;;;2.00;99.90;;;;;;4834423;29;20126;-78
2021/11/24 04:21:41;;;;;;;30.27;17.55;;;1.90;99.90;;;;;;4844711;29;20037;-78
2021/11/24 04:24:06;;;;;;;32.80;18.92;;;1.90;99.90;;;;;;4842314;29;20037;-78
2021/11/24 04:26:32;;;;;;;39.22;19.45;;;1.80;99.70;;;;;;4871990;29;20029;-78
2021/11/24 04:28:58;;;;;;;29.80;17.45;;;1.80;99.60;;;;;;4841716;29;20063;-78
2021/11/24 04:31:24;;;;;;;35.08;18.58;;;1.70;99.40;;;;;;4844202;29;20252;-78
2021/11/24 04:33:49;;;;;;;33.67;18.60;;;1.60;99.50;;;;;;4845330;29;20042;-78
2021/11/24 04:36:15;;;;;;;30.65;18.50;;;1.60;99.50;;;;;;4838523;29;20038;-78
2021/11/24 04:38:42;;;;;;;34.08;18.80;;;1.60;99.30;;;;;;4859844;29;20241;-78
2021/11/24 04:41:08;;;;;;;37.97;20.05;;;1.50;99.20;;;;;;4887607;29;20044;-78
2021/11/24 04:43:39;;;;;;;36.50;19.95;;;1.40;99.30;;;;;;4861373;29;20033;-78
2021/11/24 04:46:05;;;;;;;32.75;17.88;;;1.40;99.40;;;;;;4862124;29;20041;-78
2021/11/24 04:48:31;;;;;;;33.67;18.73;;;1.30;99.40;;;;;;4821171;29;20600;-78
2021/11/24 04:50:57;;;;;;;37.45;21.02;;;1.30;99.30;;;;;;4835488;29;20042;-78
2021/11/24 04:53:23;;;;;;;35.25;19.77;;;1.30;99.40;;;;;;4819996;29;20412;-78
2021/11/24 04:55:49;;;;;;;38.10;18.83;;;1.30;99.30;;;;;;4853283;29;20041;-78
2021/11/24 04:58:15;;;;;;;42.47;19.75;;;1.20;99.20;;;;;;4865512;29;20056;-78
2021/11/24 05:00:41;;;;;;;43.38;23.20;;;1.20;99.10;;;;;;4850304;29;20041;-78
2021/11/24 05:03:07;;;;;;;36.53;20.52;;;1.20;99.00;;;;;;4847636;29;20038;-78
2021/11/24 05:05:33;;;;;;;32.42;17.70;;;1.10;99.10;;;;;;4852869;29;20250;-78
2021/11/24 05:07:59;;;;;;;36.35;20.05;;;1.10;99.10;;;;;;4823895;29;20038;-78
2021/11/24 05:10:26;;;;;;;36.38;18.73;;;1.00;99.10;;;;;;4854851;29;20388;-78
2021/11/24 05:12:52;;;;;;;28.17;16.25;;;1.00;99.10;;;;;;4838525;29;20037;-78
2021/11/24 05:15:27;;;;;;;30.73;17.13;;;1.00;99.30;;;;;;4810747;29;20225;-77
2021/11/24 05:17:59;;;;;;;33.35;18.58;;;1.00;99.00;;;;;;4839862;29;20043;-78
2021/11/24 05:20:28;;;;;;;37.20;19.58;;;0.90;98.90;;;;;;4847265;29;20054;-78
2021/11/24 05:22:56;;;;;;;32.35;19.42;;;0.90;98.90;;;;;;4844123;29;20345;-78
2021/11/24 05:25:22;;;;;;;35.03;19.48;;;0.90;98.80;;;;;;4856520;29;20068;-78
2021/11/24 05:27:48;;;;;;;28.85;17.33;;;0.90;98.90;;;;;;4868886;29;20030;-79
2021/11/24 05:30:14;;;;;;;31.67;19.52;;;0.90;98.90;;;;;;4850155;29;20026;-78
2021/11/24 05:32:39;;;;;;;34.17;19.80;;;0.90;98.80;;;;;;4857558;29;20034;-78
2021/11/24 05:35:06;;;;;;;32.30;17.75;;;1.00;98.80;;;;;;4825105;29;20063;-78
2021/11/24 05:37:32;;;;;;;37.53;19.30;;;1.00;98.80;;;;;;4850417;29;20443;-78
2021/11/24 05:39:58;;;;;;;36.05;19.42;;;1.00;98.70;;;;;;4834909;29;20105;-78
2021/11/24 05:42:26;;;;;;;35.42;18.50;;;1.10;98.60;;;;;;4837261;29;20030;-78
2021/11/24 05:45:01;;;;;;;34.97;19.90;;;1.10;98.60;;;;;;4845091;29;20033;-78
2021/11/24 05:50:12;;;;;;;38.47;20.20;;;1.20;98.90;;;;;;4859058;29;20465;-78
2021/11/24 05:52:38;;;;;;;43.17;20.92;;;1.30;99.00;;;;;;4856099;29;20044;-79
2021/11/24 05:55:04;;;;;;;37.00;19.33;;;1.40;99.20;;;;;;4826024;29;20030;-79
2021/11/24 05:57:30;;;;;;;40.17;23.27;;;1.50;99.30;;;;;;4847126;29;20038;-78
2021/11/24 05:59:56;;;;;;;41.45;22.60;;;1.60;99.30;;;;;;4834743;29;20122;-78
2021/11/24 06:02:21;;;;;;;36.17;19.10;;;1.60;99.40;;;;;;4840076;29;20053;-79
2021/11/24 06:04:47;;;;;;;40.22;21.35;;;1.70;99.90;;;;;;4840784;29;20056;-78
2021/11/24 06:07:13;;;;;;;42.85;22.83;;;1.70;99.90;;;;;;4828407;29;20034;-79
2021/11/24 06:09:39;;;;;;;48.78;25.05;;;1.80;99.90;;;;;;4843248;29;20372;-79
2021/11/24 06:12:05;;;;;;;45.20;22.73;;;1.90;99.90;;;;;;4854542;29;20062;-79
2021/11/24 06:14:30;;;;;;;39.10;21.67;;;1.90;99.90;;;;;;4863808;29;20038;-79
2021/11/24 06:16:57;;;;;;;43.70;23.63;;;2.10;99.90;;;;;;4822497;29;20033;-79
2021/11/24 06:19:23;;;;;;;;;;;2.10;99.90;;;;;;4823203;29;20090;-79
2021/11/24 06:21:50;;;;;;;46.77;24.33;;;2.20;99.90;;;;;;4859049;29;19916;-79
2021/11/24 06:24:16;;;;;;;;;;;2.20;99.90;;;;;;4865175;29;20054;-79
2021/11/24 06:26:42;;;;;;;50.00;24.80;;;2.30;99.90;;;;;;4837385;29;20120;-79
2021/11/24 06:29:08;;;;;;;42.67;24.75;;;2.30;99.90;;;;;;4868040;29;20029;-79
2021/11/24 06:31:35;;;;;;;42.92;23.02;;;2.40;99.90;;;;;;4827946;29;20068;-79
2021/11/24 06:34:01;;;;;;;;;;;2.40;99.90;;;;;;4830050;29;20064;-79
2021/11/24 06:36:27;;;;;;;46.73;24.80;;;2.50;99.90;;;;;;4851724;29;19913;-79
2021/11/24 06:38:53;;;;;;;42.03;23.50;;;2.60;99.90;;;;;;4839306;29;20058;-79
2021/11/24 06:41:19;;;;;;;41.13;22.97;;;2.60;99.90;;;;;;4831570;29;20053;-79
2021/11/24 06:43:45;;;;;;;41.53;23.17;;;2.70;99.90;;;;;;4862391;29;20470;-79
2021/11/24 06:46:10;;;;;;;50.92;25.23;;;2.70;99.90;;;;;;4862949;29;20135;-79
2021/11/24 06:48:36;;;;;;;46.88;23.95;;;2.80;99.90;;;;;;4831405;29;20045;-79
2021/11/24 06:51:03;;;;;;;45.13;22.15;;;2.90;99.90;;;;;;4830760;29;20081;-78
2021/11/24 06:53:29;;;;;;;37.20;21.48;;;3.00;99.90;;;;;;4846946;29;20033;-79
2021/11/24 06:55:55;;;;;;;34.67;22.08;;;3.10;99.90;;;;;;4859102;29;20038;-78
2021/11/24 06:58:21;;;;;;;40.30;21.77;;;3.20;99.90;;;;;;4846039;29;20294;-78
2021/11/24 07:00:47;;;;;;;45.10;22.38;;;3.20;99.90;;;;;;4830432;29;20041;-79
2021/11/24 07:03:12;;;;;;;42.35;23.80;;;3.30;99.90;;;;;;4850048;29;20070;-78
2021/11/24 07:05:39;;;;;;;37.10;22.08;;;3.30;99.90;;;;;;4827131;29;20439;-78
2021/11/24 07:08:05;;;;;;;41.00;25.13;;;3.40;99.90;;;;;;4834868;29;20033;-78
2021/11/24 07:10:32;;;;;;;38.05;21.63;;;3.50;99.90;;;;;;4860596;29;20018;-78
2021/11/24 07:12:58;;;;;;;37.65;22.58;;;3.60;99.90;;;;;;4843145;29;20141;-78
2021/11/24 07:15:24;;;;;;;43.40;20.60;;;3.70;99.90;;;;;;4860925;29;20025;-78
2021/11/24 07:17:50;;;;;;;37.92;22.10;;;3.80;99.90;;;;;;4859109;29;20318;-78
2021/11/24 07:20:16;;;;;;;37.85;22.20;;;3.80;99.90;;;;;;4814460;29;20033;-78
2021/11/24 07:22:42;;;;;;;37.13;21.92;;;3.90;99.90;;;;;;4863515;29;20250;-79
2021/11/24 07:25:10;;;;;;;39.70;23.08;;;3.90;99.90;;;;;;4850990;29;20022;-79
2021/11/24 07:27:35;;;;;;;;;;;4.00;99.90;;;;;;4863437;29;20093;-79
2021/11/24 07:30:01;;;;;;;37.07;21.53;;;4.00;99.90;;;;;;4848909;29;19924;-79
2021/11/24 07:32:28;;;;;;;40.15;21.67;;;4.10;99.90;;;;;;4856575;29;20033;-79
2021/11/24 07:34:53;;;;;;;38.97;21.98;;;4.20;99.90;;;;;;4848877;29;20052;-79
2021/11/24 07:37:19;;;;;;;42.33;24.70;;;4.20;99.90;;;;;;4842087;29;20042;-79
2021/11/24 07:39:45;;;;;;;42.13;22.38;;;4.30;99.90;;;;;;4828439;29;20100;-79
2021/11/24 07:42:14;;;;;;;38.88;23.00;;;4.40;99.70;;;;;;4860839;29;20037;-79
2021/11/24 07:44:40;;;;;;;44.03;23.80;;;4.40;99.50;;;;;;4844625;29;20093;-79
2021/11/24 07:47:06;;;;;;;49.35;25.17;;;4.50;99.40;;;;;;4849084;29;20052;-79
2021/11/24 07:49:31;;;;;;;51.92;22.85;;;4.50;99.60;;;;;;4826119;29;20288;-79
2021/11/24 07:51:57;;;;;;;50.40;24.77;;;4.60;99.90;;;;;;4826329;29;20109;-79
2021/11/24 07:54:23;;;;;;;49.17;24.48;;;4.70;99.70;;;;;;4865308;29;20445;-79
2021/11/24 07:56:48;;;;;;;43.97;25.23;;;4.80;99.70;;;;;;4827014;29;20040;-79
2021/11/24 07:59:17;;;;;;;46.80;25.55;;;4.90;99.60;;;;;;4845943;29;20432;-79
2021/11/24 08:01:43;;;;;;;45.55;23.02;;;5.00;99.50;;;;;;4830142;29;20049;-79
2021/11/24 08:04:09;;;;;;;40.53;21.67;;;5.10;99.50;;;;;;4834976;29;20109;-79
2021/11/24 08:06:35;;;;;;;41.40;23.17;;;5.20;99.10;;;;;;4843553;29;20034;-79
2021/11/24 08:09:04;;;;;;;37.25;19.90;;;5.20;98.70;;;;;;4849171;29;20057;-79
2021/11/24 08:11:30;;;;;;;45.00;23.35;;;5.30;98.60;;;;;;4840503;29;20032;-79
2021/11/24 08:13:56;;;;;;;31.85;19.08;;;5.40;98.20;;;;;;4849182;29;20333;-79
2021/11/24 08:16:22;;;;;;;37.50;18.77;;;5.40;97.90;;;;;;4841040;29;20037;-79
2021/11/24 08:18:47;;;;;;;30.40;18.42;;;5.50;97.70;;;;;;4845838;29;20104;-79
2021/11/24 08:21:13;;;;;;;40.65;21.92;;;5.50;97.90;;;;;;4822006;29;20030;-79
2021/11/24 08:23:39;;;;;;;40.10;18.10;;;5.60;98.00;;;;;;4811376;29;20029;-79
2021/11/24 08:26:05;;;;;;;32.60;19.33;;;5.80;97.90;;;;;;4849487;29;20052;-79
2021/11/24 08:28:31;;;;;;;38.20;19.45;;;5.90;97.70;;;;;;4830049;29;20142;-79
2021/11/24 08:30:57;;;;;;;31.55;19.83;;;5.90;97.20;;;;;;4841281;29;20094;-80
2021/11/24 08:33:23;;;;;;;32.60;18.75;;;5.90;96.80;;;;;;4839939;29;20253;-80
2021/11/24 08:35:49;;;;;;;30.05;17.17;;;6.00;97.10;;;;;;4846995;29;20053;-80
2021/11/24 08:38:15;;;;;;;30.23;17.20;;;6.10;96.90;;;;;;4828074;29;20030;-80
2021/11/24 08:40:41;;;;;;;26.98;16.88;;;6.20;96.30;;;;;;4845610;29;20058;-80
2021/11/24 08:43:07;;;;;;;33.85;18.00;;;6.30;96.30;;;;;;4832320;29;20037;-79
2021/11/24 08:45:34;;;;;;;30.35;17.13;;;6.30;96.00;;;;;;4839472;29;20329;-80
2021/11/24 08:48:00;;;;;;;31.33;18.47;;;6.30;96.10;;;;;;4844102;29;20075;-79
2021/11/24 08:50:25;;;;;;;33.67;17.40;;;6.40;95.80;;;;;;4849803;29;20608;-80
2021/11/24 08:52:51;;;;;;;29.15;17.63;;;6.30;95.40;;;;;;4851255;29;20054;-79
2021/11/24 08:55:18;;;;;;;34.58;17.52;;;6.40;95.50;;;;;;4837933;29;20026;-79
2021/11/24 08:57:45;;;;;;;32.58;18.15;;;6.50;95.90;;;;;;4845778;29;20595;-80
2021/11/24 09:00:13;;;;;;;49.13;20.50;;;6.70;96.00;;;;;;4851204;29;20038;-79
2021/11/24 09:02:40;;;;;;;36.42;20.83;;;6.80;95.10;;;;;;4848198;29;20038;-79
2021/11/24 09:05:07;;;;;;;33.78;17.83;;;6.80;94.90;;;;;;4846870;29;20229;-80
2021/11/24 09:07:33;;;;;;;40.28;18.63;;;6.80;94.60;;;;;;4846411;29;20037;-79
2021/11/24 09:10:01;;;;;;;49.63;17.88;;;6.80;94.70;;;;;;4858614;29;20045;-79
2021/11/24 09:12:27;;;;;;;34.63;18.27;;;6.90;94.50;;;;;;4829825;29;20105;-79
2021/11/24 09:14:52;;;;;;;38.42;18.15;;;6.90;94.30;;;;;;4859705;29;20230;-79
2021/11/24 09:17:20;;;;;;;43.60;18.85;;;7.00;94.40;;;;;;4850331;29;20045;-79
2021/11/24 09:19:46;;;;;;;40.20;19.88;;;7.00;93.80;;;;;;4826503;29;20029;-79
2021/11/24 09:22:12;;;;;;;41.10;18.23;;;7.00;94.10;;;;;;4852318;29;20101;-78
2021/11/24 09:24:40;;;;;;;56.85;20.17;;;6.90;93.40;;;;;;4832330;29;20322;-78
2021/11/24 09:27:16;;;;;;;36.78;19.67;;;6.80;94.20;;;;;;4833274;29;20025;-79
2021/11/24 09:29:43;;;;;;;42.25;20.17;;;6.90;94.40;;;;;;4859360;29;20033;-78
2021/11/24 09:32:10;;;;;;;39.92;19.13;;;6.90;94.30;;;;;;4835318;29;20148;-78
2021/11/24 09:34:36;;;;;;;41.83;19.35;;;7.00;93.90;;;;;;4866116;29;20236;-78
2021/11/24 09:37:02;;;;;;;37.58;17.80;;;7.00;94.00;;;;;;4863240;29;20038;-77
2021/11/24 09:39:28;;;;;;;37.30;19.88;;;7.10;94.10;;;;;;4853030;29;20041;-78
2021/11/24 09:41:57;;;;;;;34.90;18.40;;;7.20;93.80;;;;;;4828508;29;20045;-78
2021/11/24 09:44:23;;;;;;;31.45;18.75;;;7.30;93.80;;;;;;4855318;29;20025;-78
2021/11/24 09:46:51;;;;;;;34.70;19.63;;;7.40;93.50;;;;;;4848826;29;20026;-78
2021/11/24 09:49:18;;;;;;;54.22;20.80;;;7.50;93.00;;;;;;4857487;29;20074;-79
2021/11/24 09:51:45;;;;;;;41.03;21.98;;;7.50;92.90;;;;;;4861202;29;20347;-79
2021/11/24 09:54:12;;;;;;;;;;;7.50;93.10;;;;;;4844851;29;20045;-78
2021/11/24 09:56:40;;;;;;;39.55;22.63;;;7.50;92.70;;;;;;4866721;29;19908;-78
2021/11/24 09:59:10;;;;;;;39.90;20.52;;;7.60;92.80;;;;;;4810069;29;20029;-78
2021/11/24 10:01:39;;;;;;;40.15;20.80;;;7.70;92.70;;;;;;4826809;29;20038;-78
2021/11/24 10:04:10;;;;;;;32.58;17.85;;;7.80;92.50;;;;;;4848433;29;20254;-78
2021/11/24 10:06:40;;;;;;;30.75;18.83;;;7.80;92.00;;;;;;4861438;29;20053;-77
2021/11/24 10:09:07;;;;;;;36.67;19.35;;;7.80;91.60;;;;;;4858144;29;20021;-78
2021/11/24 10:11:33;;;;;;;37.42;19.92;;;7.80;91.80;;;;;;4847416;29;20033;-78
2021/11/24 10:13:59;;;;;;;36.97;17.73;;;7.90;92.30;;;;;;4857343;29;20034;-79
2021/11/24 10:16:31;;;;;;;40.75;18.20;;;7.80;90.70;;;;;;4858295;29;20049;-79
2021/11/24 10:19:06;;;;;;;36.03;18.67;;;7.80;91.20;;;;;;4861202;29;20038;-79
2021/11/24 10:21:33;;;;;;;31.98;15.82;;;7.80;92.00;;;;;;4862085;29;20261;-79
2021/11/24 10:24:05;;;;;;;38.72;19.23;;;7.90;90.70;;;;;;4860532;29;20083;-79
2021/11/24 10:26:37;;;;;;;32.83;16.85;;;7.90;91.40;;;;;;4862057;29;20034;-79
2021/11/24 10:29:08;;;;;;;34.38;15.13;;;7.90;91.00;;;;;;4863703;29;20037;-80
2021/11/24 10:31:40;;;;;;;33.35;16.15;;;7.90;90.60;;;;;;4842362;29;20328;-79
2021/11/24 10:34:18;;;;;;;27.63;15.07;;;7.80;90.90;;;;;;4861059;29;20037;-79
2021/11/24 10:37:05;;;;;;;29.52;14.98;;;7.80;90.70;;;;;;4864608;29;20073;-80
2021/11/24 10:39:33;;;;;;;29.65;15.48;;;7.80;90.60;;;;;;4844904;29;20129;-81
2021/11/24 10:42:10;;;;;;;31.73;14.40;;;7.70;90.10;;;;;;4867523;29;20045;-82
2021/11/24 10:44:36;;;;;;;27.77;15.05;;;7.70;90.90;;;;;;4836151;29;20049;-81
2021/11/24 10:47:07;;;;;;;24.88;13.88;;;7.90;91.00;;;;;;4832696;29;20053;-82
2021/11/24 10:49:45;;;;;;;34.22;14.60;;;8.00;90.90;;;;;;4843140;29;20076;-82
2021/11/24 10:52:24;;;;;;;22.75;13.57;;;8.20;90.00;;;;;;4847825;29;20166;-82
2021/11/24 10:55:14;;;;;;;22.17;13.25;;;8.20;89.70;;;;;;4842434;29;20037;-82
2021/11/24 10:57:42;;;;;;;27.58;15.00;;;8.40;89.90;;;;;;4846901;29;20033;-82
2021/11/24 11:00:15;;;;;;;39.03;15.65;;;8.50;87.80;;;;;;4848602;29;20034;-82
2021/11/24 11:02:44;;;;;;;22.45;12.40;;;8.60;88.40;;;;;;4852188;29;20053;-82
2021/11/24 11:05:12;;;;;;;22.77;11.35;;;8.70;87.50;;;;;;4830232;29;20030;-82
2021/11/24 11:07:48;;;;;;;22.42;11.65;;;8.80;85.80;;;;;;4840616;29;20033;-82
2021/11/24 11:10:27;;;;;;;17.03;10.23;;;8.80;86.80;;;;;;4850645;29;20025;-82
2021/11/24 11:12:59;;;;;;;16.33;8.75;;;8.70;84.00;;;;;;4864048;29;20328;-82
2021/11/24 11:15:32;;;;;;;19.55;9.43;;;8.70;86.00;;;;;;4841464;29;20032;-82
2021/11/24 11:18:03;;;;;;;15.10;8.45;;;8.70;85.40;;;;;;4868206;29;20030;-82
2021/11/24 11:20:48;;;;;;;19.77;9.20;;;8.70;84.50;;;;;;4860358;29;20025;-82
2021/11/24 11:23:21;;;;;;;20.80;9.45;;;8.60;83.70;;;;;;4848795;29;20069;-83
2021/11/24 11:25:54;;;;;;;18.00;9.63;;;8.60;85.40;;;;;;4866767;29;20022;-82
2021/11/24 11:28:21;;;;;;;19.42;9.60;;;8.60;86.40;;;;;;4870303;29;20202;-82
2021/11/24 11:30:49;;;;;;;14.95;9.15;;;8.50;85.20;;;;;;4842939;29;20096;-82
2021/11/24 11:33:16;;;;;;;12.30;7.25;;;8.50;86.50;;;;;;4828130;29;20069;-82
2021/11/24 11:35:44;;;;;;;26.00;8.80;;;8.40;85.40;;;;;;4851573;29;20041;-82
2021/11/24 11:38:10;;;;;;;19.08;8.95;;;8.30;86.50;;;;;;4820452;29;20237;-82
2021/11/24 11:40:39;;;;;;;18.13;8.95;;;8.20;86.50;;;;;;4827846;29;20046;-82
2021/11/24 11:43:07;;;;;;;21.48;7.82;;;8.20;87.40;;;;;;4862664;29;20072;-83
2021/11/24 11:45:35;;;;;;;13.75;7.95;;;8.20;87.40;;;;;;4843358;29;20281;-83
2021/11/24 11:48:03;;;;;;;21.30;8.95;;;8.20;88.20;;;;;;4842283;29;20052;-83
2021/11/24 11:50:58;;;;;;;18.30;8.35;;;8.30;89.00;;;;;;4836640;29;20046;-82
2021/11/24 11:53:31;;;;;;;15.57;8.23;;;8.30;88.20;;;;;;4854326;29;20272;-82
2021/11/24 11:56:10;;;;;;;12.38;7.72;;;8.40;88.60;;;;;;4851335;29;20036;-83
2021/11/24 11:58:55;;;;;;;14.70;8.68;;;8.40;87.50;;;;;;4839357;29;20072;-83
2021/11/24 12:01:54;;;;;;;11.93;7.90;;;8.50;88.40;;;;;;4843808;29;20037;-82
2021/11/24 12:04:46;;;;;;;17.45;7.88;;;8.50;88.30;;;;;;4835893;29;20049;-82
2021/11/24 12:07:16;;;;;;;11.82;7.72;;;8.40;88.90;;;;;;4792328;29;20038;-82
2021/11/24 12:09:47;;;;;;;11.00;7.75;;;8.30;88.70;;;;;;4811670;29;20047;-82
2021/11/24 12:12:18;;;;;;;11.23;7.72;;;8.40;88.80;;;;;;4794924;30;20050;-82
2021/11/24 12:15:09;;;;;;;14.88;8.38;;;8.40;89.00;;;;;;4806100;29;20067;-82
2021/11/24 12:17:37;;;;;;;12.80;8.05;;;8.50;89.40;;;;;;4811368;29;20347;-82
2021/11/24 12:20:15;;;;;;;16.02;8.35;;;8.50;87.80;;;;;;4785014;29;20301;-83
2021/11/24 12:23:00;;;;;;;12.70;7.93;;;8.50;88.30;;;;;;4792946;29;20053;-82
2021/11/24 12:25:26;;;;;;;14.80;8.00;;;8.60;87.00;;;;;;4799171;29;20338;-82
2021/11/24 12:30:48;;;;;;;19.35;8.32;;;8.70;86.90;;;;;;4807265;29;20647;-82
2021/11/24 12:33:24;;;;;;;;;;;8.70;86.60;;;;;;4800167;29;20039;-83
2021/11/24 12:35:54;;;;;;;23.90;8.32;;;8.80;86.90;;;;;;4807924;29;19916;-82
2021/11/24 12:38:24;;;;;;;14.00;8.13;;;8.80;85.40;;;;;;4800774;29;20208;-83
2021/11/24 12:40:51;;;;;;;10.50;6.35;;;8.90;85.70;;;;;;4831548;29;20054;-83
2021/11/24 12:43:22;;;;;;;11.73;7.40;;;9.00;84.70;;;;;;4835616;29;20388;-82
2021/11/24 12:46:10;;;;;;;13.05;7.45;;;9.10;84.30;;;;;;4844690;29;20108;-83
2021/11/24 12:48:48;;;;;;;12.18;7.90;;;9.20;83.70;;;;;;4853001;29;20041;-82
2021/11/24 12:51:28;;;;;;;17.27;7.93;;;9.20;83.20;;;;;;4858987;29;20086;-82
2021/11/24 12:53:54;;;;;;;14.18;9.13;;;9.10;84.20;;;;;;4867251;29;20373;-81
2021/11/24 12:56:23;;;;;;;16.38;9.13;;;9.20;84.00;;;;;;4842747;29;20032;-83
2021/11/24 12:58:49;;;;;;;12.23;7.65;;;9.20;84.00;;;;;;4867268;29;20041;-83
2021/11/24 13:01:17;;;;;;;10.98;7.20;;;9.20;83.20;;;;;;4851035;29;20037;-83
2021/11/24 13:03:46;;;;;;;10.23;7.18;;;9.10;83.60;;;;;;4848548;29;20037;-82
2021/11/24 13:06:12;;;;;;;12.43;8.00;;;9.00;83.70;;;;;;4831042;29;20030;-83
2021/11/24 13:08:38;;;;;;;13.70;7.37;;;9.00;83.70;;;;;;4849562;29;20025;-83
2021/11/24 13:11:07;;;;;;;12.95;7.45;;;8.90;84.10;;;;;;4852090;29;20076;-83
2021/11/24 13:13:33;;;;;;;14.70;8.32;;;8.90;84.70;;;;;;4878516;29;20061;-83
2021/11/24 13:15:59;;;;;;;17.00;8.65;;;8.90;84.30;;;;;;4846662;29;20045;-83
2021/11/24 13:18:26;;;;;;;14.95;8.70;;;8.90;85.10;;;;;;4840479;29;20458;-83
2021/11/24 13:20:53;;;;;;;13.85;7.93;;;8.80;84.50;;;;;;4845878;29;20060;-83
2021/11/24 13:23:19;;;;;;;15.38;9.82;;;8.80;84.80;;;;;;4832974;29;20148;-83
2021/11/24 13:25:45;;;;;;;15.07;8.35;;;8.70;85.20;;;;;;4851551;29;20021;-83
2021/11/24 13:28:14;;;;;;;17.65;9.32;;;8.70;85.30;;;;;;4869797;29;20033;-83
2021/11/24 13:30:42;;;;;;;13.93;9.05;;;8.70;85.70;;;;;;4854819;29;20022;-82
2021/11/24 13:33:09;;;;;;;17.27;8.65;;;8.60;85.60;;;;;;4852670;29;20042;-82
2021/11/24 13:35:45;;;;;;;13.75;8.52;;;8.60;85.30;;;;;;4847154;29;20169;-83
2021/11/24 13:38:18;;;;;;;18.42;9.05;;;8.60;85.90;;;;;;4853306;29;20032;-83
2021/11/24 13:40:49;;;;;;;15.35;8.57;;;8.60;85.90;;;;;;4854151;29;20038;-82
2021/11/24 13:43:38;;;;;;;12.07;7.80;;;8.50;85.60;;;;;;4843229;29;20118;-82
2021/11/24 13:46:27;;;;;;;19.10;9.57;;;8.50;85.60;;;;;;4862116;29;20025;-82
2021/11/24 13:49:10;;;;;;;17.17;10.43;;;8.40;86.70;;;;;;4865461;29;20049;-82
2021/11/24 13:51:47;;;;;;;22.98;9.95;;;8.30;87.60;;;;;;4861467;29;20034;-83
2021/11/24 13:54:18;;;;;;;16.52;9.02;;;8.30;87.70;;;;;;4843881;29;20038;-83
2021/11/24 13:56:45;;;;;;;16.38;8.77;;;8.30;87.80;;;;;;4868245;29;20041;-82
2021/11/24 13:59:12;;;;;;;;;;;8.20;87.70;;;;;;4847709;29;20073;-82
2021/11/24 14:01:44;;;;;;;40.92;20.52;;;8.10;87.30;;;;;;4837883;29;19920;-83
2021/11/24 14:04:13;;;;;;;35.42;16.52;;;8.10;87.50;;;;;;4849257;29;20042;-82
2021/11/24 14:06:50;;;;;;;14.35;8.90;;;8.00;87.90;;;;;;4838144;29;20077;-82
2021/11/24 14:09:47;;;;;;;17.60;9.10;;;8.00;88.50;;;;;;4848691;29;20036;-83
2021/11/24 14:12:15;;;;;;;14.30;9.02;;;7.90;88.50;;;;;;4872194;29;20072;-83
2021/11/24 14:15:02;;;;;;;15.65;8.95;;;7.90;88.90;;;;;;4872638;29;20341;-83
2021/11/24 14:17:35;;;;;;;34.25;10.63;;;7.80;89.10;;;;;;4859515;29;20202;-83
2021/11/24 14:20:09;;;;;;;143.85;17.48;;;7.80;89.60;;;;;;4850602;29;20033;-83
2021/11/24 14:22:36;;;;;;;28.67;12.20;;;7.70;90.00;;;;;;4846972;29;20124;-83
2021/11/24 14:25:03;;;;;;;48.10;32.25;;;7.70;90.20;;;;;;4867164;29;20077;-83
2021/11/24 14:27:29;;;;;;;50.42;30.27;;;7.70;90.40;;;;;;4859798;29;20040;-82
2021/11/24 14:29:55;;;;;;;56.92;30.77;;;7.60;90.60;;;;;;4837594;29;20036;-83
2021/11/24 14:32:20;;;;;;;436.55;221.88;;;7.60;90.60;;;;;;4856647;29;20592;-83
2021/11/24 14:34:46;;;;;;;73.55;40.92;;;7.50;90.60;;;;;;4841398;29;20053;-83
2021/11/24 14:37:12;;;;;;;24.25;14.85;;;7.50;90.70;;;;;;4835842;29;20056;-83
2021/11/24 14:39:38;;;;;;;23.60;14.70;;;7.40;90.90;;;;;;4853565;29;20044;-83
2021/11/24 14:42:05;;;;;;;24.55;14.10;;;7.40;91.00;;;;;;4848324;29;20475;-83
2021/11/24 14:44:31;;;;;;;21.83;13.25;;;7.40;91.20;;;;;;4853013;29;20120;-83
2021/11/24 14:46:57;;;;;;;23.60;13.50;;;7.30;91.20;;;;;;4867909;29;20026;-83
2021/11/24 14:49:24;;;;;;;22.20;14.03;;;7.30;91.30;;;;;;4858284;29;20355;-82
2021/11/24 14:51:50;;;;;;;30.83;14.60;;;7.20;91.60;;;;;;4836989;29;20325;-82
2021/11/24 14:54:16;;;;;;;22.73;14.23;;;7.10;91.60;;;;;;4845383;29;20037;-83
2021/11/24 14:56:45;;;;;;;22.13;13.10;;;7.10;91.70;;;;;;4864293;29;20333;-83
2021/11/24 14:59:10;;;;;;;24.10;11.93;;;7.00;91.80;;;;;;4868940;29;20045;-83
2021/11/24 15:01:37;;;;;;;26.88;14.05;;;7.00;91.90;;;;;;4835237;29;20113;-82
2021/11/24 15:04:03;;;;;;;21.43;13.43;;;6.90;92.00;;;;;;4844052;29;20062;-82
2021/11/24 15:06:29;;;;;;;23.00;13.30;;;6.90;92.10;;;;;;4833928;29;20052;-82
2021/11/24 15:08:55;;;;;;;24.48;12.75;;;6.80;92.20;;;;;;4843096;29;20287;-82
2021/11/24 15:11:22;;;;;;;23.80;14.13;;;6.80;92.50;;;;;;4828014;29;20262;-82
2021/11/24 15:13:49;;;;;;;24.02;13.35;;;6.70;92.60;;;;;;4835631;29;20046;-82
2021/11/24 15:16:16;;;;;;;;;;;6.60;92.70;;;;;;4835900;29;20061;-82
2021/11/24 15:18:42;;;;;;;25.92;14.45;;;6.60;92.80;;;;;;4850790;29;19957;-82
2021/11/24 15:21:08;;;;;;;30.73;15.65;;;6.50;92.80;;;;;;4830203;29;20089;-81
2021/11/24 15:23:35;;;;;;;32.85;15.73;;;6.50;93.00;;;;;;4843174;29;20033;-82
2021/11/24 15:26:02;;;;;;;31.33;15.70;;;6.40;93.10;;;;;;4831373;29;20046;-82
2021/11/24 15:28:28;;;;;;;28.30;14.55;;;6.30;93.30;;;;;;4846455;29;20033;-82
2021/11/24 15:30:54;;;;;;;30.08;15.63;;;6.30;93.40;;;;;;4849245;29;20100;-81
2021/11/24 15:33:19;;;;;;;35.10;17.50;;;6.30;93.50;;;;;;4838210;29;20140;-82
2021/11/24 15:35:45;;;;;;;37.20;18.00;;;6.20;93.60;;;;;;4849753;29;20042;-82
2021/11/24 15:38:12;;;;;;;38.08;19.58;;;6.10;93.90;;;;;;4841854;29;20033;-81
2021/11/24 15:40:39;;;;;;;39.67;18.95;;;6.10;94.00;;;;;;4825922;29;20033;-82
2021/11/24 15:43:05;;;;;;;;;;;6.00;94.20;;;;;;4830188;29;20034;-81
2021/11/24 15:45:31;;;;;;;32.30;19.90;;;6.00;94.40;;;;;;4861816;29;19954;-82
2021/11/24 15:47:59;;;;;;;35.33;20.25;;;5.90;94.40;;;;;;4849174;29;20053;-82
2021/11/24 15:50:26;;;;;;;32.78;17.58;;;5.80;94.50;;;;;;4867136;29;20110;-81
2021/11/24 15:52:53;;;;;;;40.90;20.70;;;5.80;94.80;;;;;;4847212;29;20278;-82
2021/11/24 15:55:19;;;;;;;37.60;21.02;;;5.70;94.80;;;;;;4839458;29;20077;-82
2021/11/24 15:57:45;;;;;;;40.97;21.55;;;5.70;95.00;;;;;;4827926;29;20046;-82
2021/11/24 16:00:13;;;;;;;36.97;19.98;;;5.70;95.00;;;;;;4847467;29;20134;-81
2021/11/24 16:02:45;;;;;;;41.92;21.00;;;5.60;95.10;;;;;;4866073;29;20141;-82
2021/11/24 16:05:11;;;;;;;36.83;20.95;;;5.50;95.30;;;;;;4864705;29;20037;-82
2021/11/24 16:07:37;;;;;;;40.13;20.08;;;5.50;95.70;;;;;;4862041;29;20400;-82
2021/11/24 16:10:04;;;;;;;44.97;22.13;;;5.50;95.50;;;;;;4849025;29;20060;-82
2021/11/24 16:12:30;;;;;;;43.08;22.60;;;5.40;95.50;;;;;;4861388;29;20077;-82
2021/11/24 16:14:57;;;;;;;46.20;22.95;;;5.40;95.60;;;;;;4830728;29;20033;-82
2021/11/24 16:17:22;;;;;;;45.95;21.83;;;5.30;95.50;;;;;;4836317;29;20229;-83
2021/11/24 16:19:48;;;;;;;46.17;21.67;;;5.30;95.70;;;;;;4853081;29;20106;-82
2021/11/24 16:22:15;;;;;;;45.83;23.55;;;5.30;95.80;;;;;;4856633;29;20325;-82
2021/11/24 16:24:41;;;;;;;44.30;22.33;;;5.20;95.70;;;;;;4838522;29;20086;-82
2021/11/24 16:27:08;;;;;;;46.17;22.57;;;5.20;96.30;;;;;;4851225;29;20036;-81
2021/11/24 16:29:34;;;;;;;45.10;22.33;;;5.20;96.10;;;;;;4831997;29;20278;-83
2021/11/24 16:32:00;;;;;;;35.53;20.00;;;5.10;96.10;;;;;;4836068;29;20357;-82
2021/11/24 16:34:25;;;;;;;36.47;20.25;;;5.10;96.30;;;;;;4833559;29;20041;-82
2021/11/24 16:36:54;;;;;;;42.65;21.63;;;5.10;96.40;;;;;;4828435;29;20112;-81
2021/11/24 16:39:20;;;;;;;39.47;20.95;;;5.10;96.30;;;;;;4852135;29;20037;-82